Kure Harbour — 3EZL4 — position and weather

sailwx.info

Track history (hours):
 
Tides and Currents Weather Stations Pressure Air Temp Water Temp Dewpoint Dewpoint Depression Visibility Wind Speed Wind Dir Waves Ship Positions

Kure Harbour

Last reported at 2017-Nov-10 16:27 UTC. Time now 2017-Nov-21 06:31 UTC.
Position N 22°11' W 017°22'.
Warning: this ship's position is 10 days out of date.

Length 190 m; draft 12 m.

Type: Cargo ship. MMSI: 357538000.

Date/timePositionNaut miles runAvg speedWind from/ knotsBaromVisibWave heightAir tempDewpointWater temp
2017-Nov-10 16:27N 22°11' W 017°22'613.6
2017-Nov-10 16:00N 22°17' W 017°18'713.5
2017-Nov-10 15:27N 22°23' W 017°15'613.5
2017-Nov-10 15:00N 22°28' W 017°12'713.3
2017-Nov-10 14:30N 22°34' W 017°08'713.3
2017-Nov-10 13:59N 22°40' W 017°05'613.5
2017-Nov-10 13:30N 22°46' W 017°01'713.5
2017-Nov-10 12:59N 22°52' W 016°58'613.5
2017-Nov-10 12:30N 22°58' W 016°54'25213.5
2017-Nov-09 17:48N 26°36' W 014°36'1412.8
2017-Nov-09 16:41N 26°48' W 014°27'212.7
2017-Nov-09 16:30N 26°50' W 014°25'612.6
2017-Nov-09 16:00N 26°55' W 014°21'612.9
2017-Nov-09 15:31N 27°01' W 014°18'612.8
2017-Nov-09 15:01N 27°06' W 014°13'613.0
2017-Nov-09 14:31N 27°11' W 014°09'612.7
2017-Nov-09 14:01N 27°16' W 014°05'713.4
2017-Nov-09 13:31N 27°22' W 014°01'713.4
2017-Nov-09 12:59N 27°27' W 013°56'613.8
2017-Nov-09 12:31N 27°33' W 013°52'713.7
2017-Nov-09 12:00N 27°38' W 013°47'713.6
2017-Nov-09 11:30N 27°44' W 013°43'713.5
2017-Nov-09 11:00N 27°49' W 013°39'713.4
2017-Nov-09 10:30N 27°55' W 013°34'713.2
2017-Nov-09 10:00N 28°00' W 013°30'612.9
2017-Nov-09 09:30N 28°06' W 013°26'713.1
2017-Nov-09 09:00N 28°11' W 013°22'613.0
2017-Nov-09 08:30N 28°17' W 013°18'713.0
2017-Nov-09 08:00N 28°22' W 013°14'713.1
2017-Nov-09 07:30N 28°28' W 013°09'713.2
2017-Nov-09 07:00N 28°33' W 013°06'712.9
2017-Nov-09 06:27N 28°39' W 013°01'612.7
2017-Nov-09 05:59N 28°44' W 012°58'612.2
2017-Nov-09 05:28N 28°49' W 012°54'511.7
2017-Nov-09 05:00N 28°54' W 012°50'711.9
2017-Nov-09 04:25N 28°60' W 012°46'612.1
2017-Nov-09 03:56N 29°04' W 012°42'512.3
2017-Nov-09 03:30N 29°09' W 012°39'612.3
2017-Nov-09 03:00N 29°14' W 012°35'612.3
2017-Nov-09 02:30N 29°19' W 012°31'612.5
2017-Nov-09 02:00N 29°24' W 012°26'612.6
2017-Nov-09 01:30N 29°29' W 012°22'6212.6
2017-Nov-08 20:38N 30°22' W 011°45'213.4
2017-Nov-08 20:29N 30°23' W 011°43'613.3
2017-Nov-08 20:00N 30°29' W 011°39'713.3
2017-Nov-08 19:30N 30°34' W 011°35'713.3
2017-Nov-08 19:00N 30°40' W 011°32'713.1
2017-Nov-08 18:30N 30°46' W 011°28'2413.5
2017-Nov-08 16:43N 31°06' W 011°12'513.5
2017-Nov-08 16:19N 31°10' W 011°08'413.5
2017-Nov-08 15:59N 31°14' W 011°05'10612.9
2017-Nov-08 07:44N 32°31' W 009°40'713.5
2017-Nov-08 07:15N 32°35' W 009°34'413.5
2017-Nov-08 06:55N 32°38' W 009°30'  
Track history (hours):
 
Tides and Currents Weather Stations Pressure Air Temp Water Temp Dewpoint Dewpoint Depression Visibility Wind Speed Wind Dir Waves Ship Positions

Kure Harbour

Last reported at 2017-Nov-10 16:27 UTC. Time now 2017-Nov-21 06:31 UTC.
Position N 22°11' W 017°22'.
Warning: this ship's position is 10 days out of date.

Length 190 m; draft 12 m.

Type: Cargo ship. MMSI: 357538000.

Date/timePositionNaut miles runAvg speedWind from/ knotsBaromVisibWave heightAir tempDewpointWater temp
2017-Nov-10 16:27N 22°11' W 017°22'613.6
2017-Nov-10 16:00N 22°17' W 017°18'713.5
2017-Nov-10 15:27N 22°23' W 017°15'613.5
2017-Nov-10 15:00N 22°28' W 017°12'713.3
2017-Nov-10 14:30N 22°34' W 017°08'713.3
2017-Nov-10 13:59N 22°40' W 017°05'613.5
2017-Nov-10 13:30N 22°46' W 017°01'713.5
2017-Nov-10 12:59N 22°52' W 016°58'613.5
2017-Nov-10 12:30N 22°58' W 016°54'25213.5
2017-Nov-09 17:48N 26°36' W 014°36'1412.8
2017-Nov-09 16:41N 26°48' W 014°27'212.7
2017-Nov-09 16:30N 26°50' W 014°25'612.6
2017-Nov-09 16:00N 26°55' W 014°21'612.9
2017-Nov-09 15:31N 27°01' W 014°18'612.8
2017-Nov-09 15:01N 27°06' W 014°13'613.0
2017-Nov-09 14:31N 27°11' W 014°09'612.7
2017-Nov-09 14:01N 27°16' W 014°05'713.4
2017-Nov-09 13:31N 27°22' W 014°01'713.4
2017-Nov-09 12:59N 27°27' W 013°56'613.8
2017-Nov-09 12:31N 27°33' W 013°52'713.7
2017-Nov-09 12:00N 27°38' W 013°47'713.6
2017-Nov-09 11:30N 27°44' W 013°43'713.5
2017-Nov-09 11:00N 27°49' W 013°39'713.4
2017-Nov-09 10:30N 27°55' W 013°34'713.2
2017-Nov-09 10:00N 28°00' W 013°30'612.9
2017-Nov-09 09:30N 28°06' W 013°26'713.1
2017-Nov-09 09:00N 28°11' W 013°22'613.0
2017-Nov-09 08:30N 28°17' W 013°18'713.0
2017-Nov-09 08:00N 28°22' W 013°14'713.1
2017-Nov-09 07:30N 28°28' W 013°09'713.2
2017-Nov-09 07:00N 28°33' W 013°06'712.9
2017-Nov-09 06:27N 28°39' W 013°01'612.7
2017-Nov-09 05:59N 28°44' W 012°58'612.2
2017-Nov-09 05:28N 28°49' W 012°54'511.7
2017-Nov-09 05:00N 28°54' W 012°50'711.9
2017-Nov-09 04:25N 28°60' W 012°46'612.1
2017-Nov-09 03:56N 29°04' W 012°42'512.3
2017-Nov-09 03:30N 29°09' W 012°39'612.3
2017-Nov-09 03:00N 29°14' W 012°35'612.3
2017-Nov-09 02:30N 29°19' W 012°31'612.5
2017-Nov-09 02:00N 29°24' W 012°26'612.6
2017-Nov-09 01:30N 29°29' W 012°22'6212.6
2017-Nov-08 20:38N 30°22' W 011°45'213.4
2017-Nov-08 20:29N 30°23' W 011°43'613.3
2017-Nov-08 20:00N 30°29' W 011°39'713.3
2017-Nov-08 19:30N 30°34' W 011°35'713.3
2017-Nov-08 19:00N 30°40' W 011°32'713.1
2017-Nov-08 18:30N 30°46' W 011°28'2413.5
2017-Nov-08 16:43N 31°06' W 011°12'513.5
2017-Nov-08 16:19N 31°10' W 011°08'413.5
2017-Nov-08 15:59N 31°14' W 011°05'10612.9
2017-Nov-08 07:44N 32°31' W 009°40'713.5
2017-Nov-08 07:15N 32°35' W 009°34'413.5
2017-Nov-08 06:55N 32°38' W 009°30'  

Dump ship's entire track history